Goldfield, Nevada Weather observations

Data are for observation ending at time listed.
 Day   Time    Ave.   Ave.  Ave.  Vector   Max.   Stn.    Total    Solar   Ave.  
  of    of     Air    Rel.  Wind   Wind    Wind   Baro.  Precip.   Rad.    Soil  
Year   Day     Temp.  Hum.  Speed  Dir.    Gust   Pres.                    Temp. 
2014   (PST)    F      %     mph   deg.    mph     mb.     in.     W/m2     F   
------------------------------------------------------------------------------
 244    0:00   66.9    21    2.1   282      3.9   827.9    0.00       0    77.0
 244    0:10   65.8    22    1.4   322      2.5   828.0    0.00       0    76.9
 244    0:20   65.4    22    1.8   284      3.7   828.0    0.00       0    76.7
 244    0:30   65.2    22    3.4   278      5.0   828.0    0.00       0    76.5
 244    0:40   65.3    22    3.2   276      5.0   828.0    0.00       0    76.5
 244    0:50   64.8    22    2.0   304      3.7   828.0    0.00       0    76.3
 244    1:00   64.3    23    1.4   304      2.7   828.0    0.00       0    76.1
 244    1:10   64.0    23    1.0   286      2.5   828.0    0.00       0    76.0
 244    1:20   63.2    24    0.5   326      1.5   828.0    0.00       0    75.9
 244    1:30   62.4    24    0.9   296      1.9   828.1    0.00       0    75.7
 244    1:40   62.0    25    1.0   293      1.8   828.1    0.00       0    75.6
 244    1:50   62.0    25    1.6   279      3.3   828.1    0.00       0    75.4
 244    2:00   62.1    25    2.3   279      4.2   828.1    0.00       0    75.3
 244    2:10   62.2    25    1.4   269      3.4   828.1    0.00       0    75.1
 244    2:20   61.4    26    0.3   354      1.2   828.1    0.00       0    75.0
 244    2:30   60.7    26    1.3   304      2.0   828.0    0.00       0    74.8
 244    2:40   60.5    26    0.1   319      0.8   828.0    0.00       0    74.7
 244    2:50   59.9    27    0.9   105      1.6   828.1    0.00       0    74.6
 244    3:00   59.9    27    1.4   121      2.1   828.1    0.00       0    74.4
 244    3:10   59.7    27    1.5   152      2.4   828.2    0.00       0    74.3
 244    3:20   59.6    28    1.4   234      2.6   828.2    0.00       0    74.2
 244    3:30   60.3    28    2.1   280      3.1   828.2    0.00       0    74.0
 244    3:40   60.7    28    1.5   266      2.8   828.3    0.00       0    73.9
 244    3:50   60.1    28    0.5   260      2.0   828.3    0.00       0    73.7
 244    4:00   59.2    29    0.0    49      0.6   828.2    0.00       0    73.6
 244    4:10   58.5    29    0.4    79      1.2   828.2    0.00       0    73.5
 244    4:20   58.3    30    1.6   128      2.1   828.2    0.00       0    73.3
 244    4:30   58.4    30    2.3   126      3.2   828.3    0.00       0    73.2
 244    4:40   59.2    29    2.3   129      2.9   828.4    0.00       0    73.1
 244    4:50   59.7    29    1.2   128      1.8   828.4    0.00       0    73.1
 244    5:00   59.3    29    1.2   118      2.0   828.5    0.00       0    73.0
 244    5:10   57.7    31    1.6   120      3.1   828.5    0.00       0    72.7
 244    5:20   57.6    31    1.7   126      2.5   828.6    0.00       2    72.6
 244    5:30   58.3    31    2.1   226      3.1   828.7    0.00       7    72.5
 244    5:40   59.1    30    2.0   271      3.2   828.8    0.00      23    72.4
 244    5:50   60.6    28    2.2   270      3.4   828.9    0.00      57    72.4
 244    6:00   63.4    26    0.1   304      0.9   829.1    0.00      94    72.2
 244    6:10   64.8    26    0.0     0      0.0   829.1    0.00     131    71.9
 244    6:20   67.0    24    0.1   328      1.1   829.2    0.00     159    71.9
 244    6:30   68.8    23    0.5   332      1.6   829.2    0.00     201    71.8
 244    6:40   70.0    22    1.2   314      2.7   829.2    0.00     238    71.8
 244    6:50   68.7    22    1.9   316      4.0   829.3    0.00     274    71.8
 244    7:00   68.5    23    3.3   311      5.1   829.3    0.00     308    71.8
 244    7:10   68.0    23    4.3   320      6.6   829.3    0.00     348    71.8
 244    7:20   67.9    23    4.1   326      6.4   829.3    0.00     384    71.9
 244    7:30   69.0    23    3.2   337      6.4   829.4    0.00     416    71.9
 244    7:40   69.7    22    3.9   348      7.0   829.4    0.00     450    72.0
 244    7:50   70.3    22    3.7   349      7.1   829.4    0.00     485    72.2
 244    8:00   70.9    22    6.0   340     10.2   829.4    0.00     521    72.3
 244    8:10   71.7    21    7.7   320     10.7   829.4    0.00     556    72.5
 244    8:20   72.7    21    8.1   316     12.2   829.4    0.00     587    72.6
 244    8:30   73.4    20    8.3   316     11.7   829.4    0.00     618    72.9
 244    8:40   73.9    20    8.7   316     12.5   829.4    0.00     648    73.2
 244    8:50   73.8    20    8.8   320     12.5   829.5    0.00     676    73.5
 244    9:00   74.4    20    7.8   337     11.5   829.5    0.00     702    73.7
 244    9:10   74.9    20    8.4   318     12.4   829.5    0.00     730    74.0
 244    9:20   75.6    20    7.7   326     12.6   829.5    0.00     755    74.2
 244    9:30   76.4    19    7.7   321     12.3   829.5    0.00     778    74.5
 244    9:40   76.0    19    7.0   325     12.9   829.4    0.00     801    74.8
 244    9:50   77.0    19    6.9   322     10.4   829.3    0.00     820    75.1
 244   10:00   78.1    18    6.9   320     12.0   829.2    0.00     839    75.5
 244   10:10   78.3    18    6.7   312     12.1   829.2    0.00     856    76.0
 244   10:20   78.8    18    5.6   341      9.3   829.1    0.00     873    76.4
 244   10:30   78.9    18    5.1   346      9.6   829.0    0.00     887    77.0
 244   10:40   79.9    17    5.4   340     11.8   828.9    0.00     899    77.5
 244   10:50   80.9    16    5.4   351      9.3   828.8    0.00     909    78.0
 244   11:00   80.7    16    4.8   338     10.3   828.9    0.00     919    78.6
 244   11:10   81.6    16    2.9    15      6.5   828.7    0.00     926    79.2
 244   11:20   82.3    15    3.9   324      7.5   828.6    0.00     929    79.7
 244   11:30   83.6    15    4.1    86      7.2   828.5    0.00     934    80.2
 244   11:40   84.8    14    4.2   175     10.7   828.4    0.00     938    80.6
 244   11:50   84.4    14    4.6   218      8.6   828.2    0.00     939    81.1
 244   12:00   83.8    14    4.2    14      8.6   828.1    0.00     931    81.7
 244   12:10   84.7    14    2.9   350      7.2   828.1    0.00     931    82.1
 244   12:20   85.8    13    4.9   112     11.6   827.9    0.00     926    82.6
 244   12:30   86.0    12    4.7    80     11.2   827.8    0.00     918    83.0
 244   12:40   86.8    12    7.1    75     11.0   827.7    0.00     908    83.5
 244   12:50   85.9    12    5.2    94     12.9   827.6    0.00     899    83.8
 244   13:00   87.0    12    5.3   102     16.4   827.6    0.00     886    84.0
 244   13:10   85.8    12    7.2   140     14.6   827.4    0.00     871    84.2
 244   13:20   86.6    11    4.5    99     12.6   827.3    0.00     858    84.3
 244   13:30   86.8    11    6.0    76     11.5   827.2    0.00     840    84.3
 244   13:40   87.1    11    3.9   100     10.4   827.1    0.00     822    84.2
 244   13:50   87.6    11    8.2   147     14.2   826.9    0.00     802    84.1
 244   14:00   87.3    11    5.3   154     12.2   826.9    0.00     782    84.1
 244   14:10   88.4    11    3.6    56     10.4   826.7    0.00     756    84.0
 244   14:20   88.8    10    3.8   118     12.7   826.6    0.00     733    83.9
 244   14:30   88.8    10    7.4   200     15.6   826.5    0.00     709    83.8
 244   14:40   88.3    10    7.0    98     14.1   826.4    0.00     681    83.7
 244   14:50   88.2    10    5.5   184     12.9   826.3    0.00     652    83.6
 244   15:00   89.4    10    7.3   203     13.2   826.3    0.00     623    83.6
 244   15:10   89.4    10    6.2   154     11.5   826.3    0.00     593    83.6
 244   15:20   87.9    10    6.6   131     12.1   826.2    0.00     560    83.6
 244   15:30   88.1    10    5.2    73      9.7   826.1    0.00     528    83.7
 244   15:40   88.8    10    5.1    93     11.8   826.1    0.00     496    83.7
 244   15:50   88.2    10    6.2   121     11.2   826.1    0.00     462    83.7
 244   16:00   88.6    10    7.3    90     11.2   826.0    0.00     428    83.8
 244   16:10   88.5    10    4.2    95      9.1   826.0    0.00     392    83.8
 244   16:20   88.7    10    5.7    77     13.6   825.9    0.00     357    83.9
 244   16:30   88.6    10    5.8    92     10.4   825.9    0.00     324    83.8
 244   16:40   88.4    10    6.3    87     10.9   825.9    0.00     289    83.8
 244   16:50   88.0    10    7.0   110     11.5   825.9    0.00     254    83.7
 244   17:00   87.9    10    6.5   118     11.0   825.9    0.00     219    83.7
 244   17:10   88.1    10    5.6    79     12.3   825.9    0.00     187    83.7
 244   17:20   87.9    10    6.1   106     11.2   825.9    0.00     155    83.6
 244   17:30   86.9    10    7.0   120     12.1   825.9    0.00     124    83.6
 244   17:40   86.8    11    5.4   102      8.1   826.0    0.00      89    83.6
 244   17:50   85.3    11    8.0   125     12.4   825.8    0.00      53    83.4
 244   18:00   84.0    11    7.1   128     10.8   825.8    0.00      19    83.4
 244   18:10   83.8    11   10.7   134     15.0   825.9    0.00      12    83.3
 244   18:20   83.3    11    8.3   141     12.5   826.0    0.00       7    83.2
 244   18:30   82.6    11   10.1   160     12.6   826.1    0.00       4    83.1
 244   18:40   81.9    12    9.5   167     14.5   826.2    0.00       1    83.0

Return to Goldfield, Nevada graphs page.


Western Regional Climate Center,wrcc@dri.edu